Time;durP1;ratioP1;P1;durP2;ratioP2;P2;SDS_P1;SDS_P2;PMS_P1;PMS_P2;Temp;Humidity;BMP_temperature;BMP_pressure;BME280_temperature;BME280_humidity;BME280_pressure;Samples;Min_cycle;Max_cycle;Signal;HPM_P1;HPM_P2
2024/02/04 00:00:23;;;;;;;10.03;4.20;;;5.50;99.90;;;;;;4970620;28;20049;-85
2024/02/04 00:02:50;;;;;;;5.93;4.30;;;5.50;99.90;;;;;;4971791;28;20031;-84
2024/02/04 00:05:15;;;;;;;5.70;3.83;;;5.50;99.90;;;;;;4971010;28;20026;-85
2024/02/04 00:07:41;;;;;;;7.87;4.43;;;5.50;99.90;;;;;;4968251;28;20045;-84
2024/02/04 00:10:06;;;;;;;6.53;4.27;;;5.50;99.90;;;;;;4970427;28;20066;-85
2024/02/04 00:12:32;;;;;;;6.30;3.97;;;5.50;99.90;;;;;;4970338;28;20073;-84
2024/02/04 00:14:58;;;;;;;5.93;3.97;;;5.50;99.90;;;;;;4971651;28;20027;-85
2024/02/04 00:17:23;;;;;;;5.57;3.60;;;5.50;99.90;;;;;;4969802;28;20080;-85
2024/02/04 00:19:49;;;;;;;5.13;4.00;;;5.50;99.90;;;;;;4970394;28;20033;-85
2024/02/04 00:22:18;;;;;;;5.43;4.43;;;5.40;99.90;;;;;;4969884;28;20746;-85
2024/02/04 00:24:43;;;;;;;5.17;3.97;;;5.40;99.90;;;;;;4971321;28;20027;-84
2024/02/04 00:27:09;;;;;;;7.67;4.30;;;5.40;99.90;;;;;;4969621;28;20038;-85
2024/02/04 00:29:34;;;;;;;5.73;4.53;;;5.40;99.90;;;;;;4971989;28;20196;-84
2024/02/04 00:32:00;;;;;;;5.73;4.33;;;5.40;99.90;;;;;;4972526;28;20073;-85
2024/02/04 00:34:25;;;;;;;5.40;4.10;;;5.40;99.90;;;;;;4972384;28;20516;-85
2024/02/04 00:36:51;;;;;;;5.43;4.50;;;5.50;99.90;;;;;;4971674;28;20046;-85
2024/02/04 00:39:17;;;;;;;6.20;4.10;;;5.50;99.90;;;;;;4971293;28;20026;-85
2024/02/04 00:41:42;;;;;;;5.20;4.10;;;5.40;99.90;;;;;;4970219;28;20030;-85
2024/02/04 00:44:08;;;;;;;6.40;4.37;;;5.40;99.90;;;;;;4971301;28;20051;-84
2024/02/04 00:46:33;;;;;;;6.63;4.60;;;5.40;99.90;;;;;;4971491;28;20045;-84
2024/02/04 00:48:59;;;;;;;6.53;4.40;;;5.40;99.90;;;;;;4970851;28;20060;-85
2024/02/04 00:51:24;;;;;;;6.40;5.07;;;5.40;99.90;;;;;;4971171;28;20067;-85
2024/02/04 00:53:50;;;;;;;7.07;5.20;;;5.40;99.90;;;;;;4971232;28;20043;-84
2024/02/04 00:56:15;;;;;;;6.40;5.33;;;5.40;99.90;;;;;;4969777;28;20603;-84
2024/02/04 00:58:41;;;;;;;6.70;5.27;;;5.40;99.90;;;;;;4970323;28;20054;-84
2024/02/04 01:01:06;;;;;;;7.27;5.73;;;5.40;99.90;;;;;;4970630;28;20035;-85
2024/02/04 01:03:32;;;;;;;8.87;6.77;;;5.40;99.90;;;;;;4971292;28;20054;-84
2024/02/04 01:05:58;;;;;;;7.93;5.80;;;5.40;99.90;;;;;;4968947;28;20030;-84
2024/02/04 01:08:23;;;;;;;8.47;6.63;;;5.40;99.90;;;;;;4969725;28;20030;-85
2024/02/04 01:10:51;;;;;;;8.60;6.77;;;5.40;99.90;;;;;;4970330;28;20043;-85
2024/02/04 01:13:17;;;;;;;8.27;6.90;;;5.40;99.90;;;;;;4971399;28;20129;-85
2024/02/04 01:15:43;;;;;;;7.13;5.97;;;5.40;99.90;;;;;;4970521;28;20157;-85
2024/02/04 01:18:08;;;;;;;7.63;6.20;;;5.40;99.90;;;;;;4968803;28;20031;-84
2024/02/04 01:20:34;;;;;;;7.40;6.33;;;5.40;99.90;;;;;;4970397;28;20498;-84
2024/02/04 01:23:00;;;;;;;6.40;5.20;;;5.40;99.90;;;;;;4971140;28;20035;-86
2024/02/04 01:25:25;;;;;;;8.07;6.07;;;5.40;99.90;;;;;;4968484;28;20554;-84
2024/02/04 01:27:51;;;;;;;6.80;5.77;;;5.30;99.90;;;;;;4972945;28;20686;-84
2024/02/04 01:30:16;;;;;;;7.10;5.67;;;5.30;99.90;;;;;;4956981;28;20045;-84
2024/02/04 01:32:42;;;;;;;6.93;5.77;;;5.30;99.90;;;;;;4975374;28;20030;-85
2024/02/04 01:35:08;;;;;;;9.43;6.07;;;5.40;99.90;;;;;;4973725;28;20026;-85
2024/02/04 01:37:33;;;;;;;7.70;5.70;;;5.40;99.90;;;;;;4974614;28;20060;-84
2024/02/04 01:39:59;;;;;;;10.30;5.80;;;5.30;99.90;;;;;;4973362;28;20541;-84
2024/02/04 01:42:25;;;;;;;8.47;6.03;;;5.30;99.90;;;;;;4956683;28;20042;-84
2024/02/04 01:44:51;;;;;;;7.10;5.20;;;5.30;99.90;;;;;;4975514;28;20192;-85
2024/02/04 01:47:16;;;;;;;6.30;5.30;;;5.30;99.90;;;;;;4974920;28;20031;-84
2024/02/04 01:49:44;;;;;;;6.60;5.13;;;5.30;99.90;;;;;;4976924;28;20041;-85
2024/02/04 01:52:11;;;;;;;5.97;4.80;;;5.40;99.90;;;;;;4974481;28;20038;-85
2024/02/04 01:54:40;;;;;;;5.63;4.60;;;5.40;99.90;;;;;;4974664;28;20031;-85
2024/02/04 01:57:06;;;;;;;5.53;4.43;;;5.40;99.90;;;;;;4975160;28;20039;-85
2024/02/04 01:59:32;;;;;;;5.23;4.13;;;5.40;99.90;;;;;;4974407;28;20038;-84
2024/02/04 02:02:00;;;;;;;6.57;3.67;;;5.50;99.90;;;;;;4972316;28;20054;-84
2024/02/04 02:04:26;;;;;;;5.27;3.90;;;5.50;99.90;;;;;;4976052;28;20112;-85
2024/02/04 02:06:54;;;;;;;5.90;4.10;;;5.50;99.90;;;;;;4975048;28;20054;-84
2024/02/04 02:09:19;;;;;;;6.00;3.37;;;5.50;99.90;;;;;;4975272;28;20026;-85
2024/02/04 02:11:47;;;;;;;5.03;3.47;;;5.50;99.90;;;;;;4975358;28;20506;-85
2024/02/04 02:14:16;;;;;;;4.17;3.37;;;5.50;99.90;;;;;;4975395;28;20042;-84
2024/02/04 02:16:44;;;;;;;5.00;3.63;;;5.60;99.90;;;;;;4959130;28;20031;-84
2024/02/04 02:19:47;;;;;;;4.77;3.07;;;5.60;99.90;;;;;;4974212;28;20031;-84
2024/02/04 02:22:37;;;;;;;7.83;3.70;;;5.70;99.90;;;;;;4978383;28;20031;-85
2024/02/04 02:25:04;;;;;;;4.90;3.70;;;5.70;99.90;;;;;;4975494;28;20038;-85
2024/02/04 02:27:30;;;;;;;3.97;3.13;;;5.70;99.90;;;;;;4975044;28;20034;-85
2024/02/04 02:29:56;;;;;;;4.70;3.40;;;5.60;99.90;;;;;;4975526;28;20044;-85
2024/02/04 02:32:21;;;;;;;4.30;3.43;;;5.60;99.90;;;;;;4976202;28;20101;-85
2024/02/04 02:34:47;;;;;;;4.83;3.73;;;5.70;99.90;;;;;;4976246;28;20035;-84
2024/02/04 02:37:46;;;;;;;5.13;3.73;;;5.70;99.90;;;;;;4974387;28;20038;-85
2024/02/04 02:40:34;;;;;;;4.47;3.50;;;5.70;99.90;;;;;;4974757;28;20053;-85
2024/02/04 02:43:02;;;;;;;5.73;3.43;;;5.60;99.90;;;;;;4974627;28;20149;-85
2024/02/04 02:45:28;;;;;;;5.10;3.80;;;5.70;99.90;;;;;;4974739;28;20118;-85
2024/02/04 02:47:54;;;;;;;5.10;3.83;;;5.60;99.90;;;;;;4974948;28;20034;-85
2024/02/04 02:50:20;;;;;;;4.77;3.27;;;5.70;99.90;;;;;;4973370;28;20070;-85
2024/02/04 02:52:46;;;;;;;4.47;3.47;;;5.70;99.90;;;;;;4974329;28;20075;-85
2024/02/04 02:55:12;;;;;;;4.60;3.20;;;5.60;99.90;;;;;;4975469;28;20122;-85
2024/02/04 02:57:37;;;;;;;4.33;3.30;;;5.70;99.90;;;;;;4976129;28;20042;-85
2024/02/04 03:00:05;;;;;;;5.53;3.40;;;5.70;99.90;;;;;;4971625;28;20115;-85
2024/02/04 03:02:31;;;;;;;3.70;3.03;;;5.80;99.90;;;;;;4974060;28;20030;-85
2024/02/04 03:04:56;;;;;;;4.33;3.20;;;5.80;99.90;;;;;;4973909;28;20034;-85
2024/02/04 03:07:22;;;;;;;4.07;2.90;;;5.80;99.90;;;;;;4973226;28;20376;-85
2024/02/04 03:09:48;;;;;;;3.40;2.67;;;5.80;99.90;;;;;;4973562;28;20076;-85
2024/02/04 03:12:13;;;;;;;4.40;2.90;;;5.90;99.90;;;;;;4975362;28;20062;-85
2024/02/04 03:14:39;;;;;;;4.23;3.17;;;5.90;99.90;;;;;;4973591;28;20027;-85
2024/02/04 03:17:04;;;;;;;3.60;2.77;;;6.00;99.90;;;;;;4974076;28;20034;-85
2024/02/04 03:19:30;;;;;;;5.00;3.63;;;6.00;99.90;;;;;;4974281;28;20023;-85
2024/02/04 03:21:55;;;;;;;5.73;3.53;;;5.90;99.90;;;;;;4974216;28;20054;-85
2024/02/04 03:24:21;;;;;;;5.13;3.97;;;6.00;99.90;;;;;;4973062;28;20610;-85
2024/02/04 03:26:46;;;;;;;4.73;3.47;;;6.00;99.90;;;;;;4955025;28;20832;-85
2024/02/04 03:29:12;;;;;;;4.40;3.63;;;6.10;99.90;;;;;;4974296;28;20062;-85
2024/02/04 03:31:37;;;;;;;6.83;3.43;;;6.00;99.90;;;;;;4974172;28;20031;-85
2024/02/04 03:34:03;;;;;;;4.37;3.37;;;6.00;99.90;;;;;;4973603;28;20671;-85
2024/02/04 03:36:30;;;;;;;4.77;3.70;;;6.00;99.90;;;;;;4972790;28;20030;-85
2024/02/04 03:38:55;;;;;;;4.83;3.63;;;6.00;99.90;;;;;;4972544;28;20041;-85
2024/02/04 03:41:21;;;;;;;5.37;3.40;;;6.00;99.90;;;;;;4974201;28;20027;-84
2024/02/04 03:43:47;;;;;;;5.00;3.40;;;6.00;99.90;;;;;;4973331;28;20520;-85
2024/02/04 03:46:16;;;;;;;4.17;3.33;;;6.00;99.90;;;;;;4974251;28;20037;-86
2024/02/04 03:48:42;;;;;;;4.43;3.17;;;6.10;99.90;;;;;;4971558;28;20043;-85
2024/02/04 03:51:07;;;;;;;4.70;3.70;;;6.10;99.90;;;;;;4972911;28;20119;-85
2024/02/04 03:53:33;;;;;;;5.70;4.07;;;6.10;99.90;;;;;;4973795;28;20047;-86
2024/02/04 03:55:59;;;;;;;5.83;3.70;;;6.10;99.90;;;;;;4973691;28;20050;-85
2024/02/04 03:58:29;;;;;;;4.80;4.10;;;6.10;99.90;;;;;;4973185;28;20035;-85
2024/02/04 04:00:57;;;;;;;5.37;3.80;;;6.10;99.90;;;;;;4973647;28;20029;-85
2024/02/04 04:03:23;;;;;;;5.50;3.97;;;6.10;99.90;;;;;;4973904;28;20030;-84
2024/02/04 04:05:49;;;;;;;7.07;3.80;;;6.20;99.90;;;;;;4974886;28;20077;-85
2024/02/04 04:08:14;;;;;;;4.73;3.80;;;6.20;99.90;;;;;;4973512;28;20121;-85
2024/02/04 04:10:40;;;;;;;5.80;3.93;;;6.20;99.90;;;;;;4972474;28;20041;-85
2024/02/04 04:13:05;;;;;;;4.53;3.63;;;6.20;99.90;;;;;;4975304;28;20034;-84
2024/02/04 04:15:31;;;;;;;4.97;3.43;;;6.20;99.90;;;;;;4976119;28;20049;-85
2024/02/04 04:17:56;;;;;;;3.90;3.13;;;6.20;99.90;;;;;;4973800;28;20038;-84
2024/02/04 04:20:22;;;;;;;4.97;3.80;;;6.20;99.90;;;;;;4973372;28;20038;-85
2024/02/04 04:22:47;;;;;;;5.00;3.90;;;6.10;99.90;;;;;;4958115;28;20030;-84
2024/02/04 04:25:14;;;;;;;4.43;3.40;;;6.10;99.90;;;;;;4976418;28;20683;-83
2024/02/04 04:27:39;;;;;;;4.63;3.93;;;6.10;99.90;;;;;;4978091;28;20397;-84
2024/02/04 04:30:06;;;;;;;3.93;3.27;;;6.10;99.90;;;;;;4977805;28;20030;-84
2024/02/04 04:32:32;;;;;;;4.47;3.60;;;6.10;99.90;;;;;;4979260;28;20030;-84
2024/02/04 04:34:58;;;;;;;4.43;3.43;;;6.00;99.90;;;;;;4975662;28;20088;-84
2024/02/04 04:37:23;;;;;;;5.40;3.40;;;6.00;99.90;;;;;;4978876;28;20029;-84
2024/02/04 04:39:49;;;;;;;3.70;3.00;;;6.00;99.90;;;;;;4979494;28;20045;-84
2024/02/04 04:42:14;;;;;;;4.20;3.50;;;5.90;99.90;;;;;;4979610;28;20030;-84
2024/02/04 04:44:40;;;;;;;4.53;3.30;;;5.90;99.90;;;;;;4979693;28;20035;-85
2024/02/04 04:47:06;;;;;;;3.93;3.13;;;5.90;99.90;;;;;;4977557;28;20058;-84
2024/02/04 04:49:31;;;;;;;4.23;2.83;;;5.90;99.90;;;;;;4978029;28;20038;-83
2024/02/04 04:51:57;;;;;;;5.23;3.27;;;5.80;99.90;;;;;;4978002;28;20121;-83
2024/02/04 04:54:23;;;;;;;4.23;3.03;;;5.80;99.90;;;;;;4977781;28;21411;-84
2024/02/04 04:56:48;;;;;;;3.93;3.07;;;5.80;99.90;;;;;;4976708;28;20098;-85
2024/02/04 04:59:15;;;;;;;4.43;2.50;;;5.90;99.90;;;;;;4977051;28;20042;-84
2024/02/04 05:01:50;;;;;;;3.87;2.83;;;5.80;99.90;;;;;;4979718;28;20046;-84
2024/02/04 05:04:18;;;;;;;3.97;2.97;;;5.80;99.90;;;;;;4982799;28;20133;-84
2024/02/04 05:06:44;;;;;;;4.00;2.80;;;5.80;99.90;;;;;;4985126;28;20046;-84
2024/02/04 05:09:09;;;;;;;4.07;2.33;;;5.70;99.90;;;;;;4981502;28;20035;-83
2024/02/04 05:11:35;;;;;;;5.10;2.77;;;5.70;99.90;;;;;;4964205;28;20037;-83
2024/02/04 05:14:01;;;;;;;4.03;2.70;;;5.80;99.90;;;;;;4979177;28;20062;-84
2024/02/04 05:16:26;;;;;;;5.23;2.63;;;5.80;99.90;;;;;;4966386;28;20864;-83
2024/02/04 05:18:52;;;;;;;4.57;2.60;;;5.80;99.90;;;;;;4988367;28;20113;-83
2024/02/04 05:21:17;;;;;;;5.17;2.60;;;5.80;99.90;;;;;;4983427;28;20041;-83
2024/02/04 05:23:43;;;;;;;5.00;2.63;;;5.80;99.90;;;;;;4982156;28;20111;-85
2024/02/04 05:26:08;;;;;;;4.80;3.13;;;5.80;99.90;;;;;;4982769;28;20037;-83
2024/02/04 05:28:34;;;;;;;6.23;2.43;;;5.90;99.90;;;;;;4980177;28;20054;-84
2024/02/04 05:31:01;;;;;;;5.13;3.00;;;5.90;99.90;;;;;;4983735;28;20056;-83
2024/02/04 05:33:27;;;;;;;5.97;3.00;;;5.90;99.90;;;;;;4982909;28;20058;-83
2024/02/04 05:35:52;;;;;;;4.97;3.03;;;5.90;99.90;;;;;;4981946;28;20088;-83
2024/02/04 05:38:18;;;;;;;7.13;3.00;;;5.90;99.90;;;;;;4981551;28;21030;-83
2024/02/04 05:40:43;;;;;;;4.93;3.07;;;5.90;99.90;;;;;;4984309;28;20031;-82
2024/02/04 05:43:10;;;;;;;5.37;3.27;;;5.90;99.90;;;;;;4985799;28;20671;-84
2024/02/04 05:45:37;;;;;;;7.30;3.23;;;6.00;99.90;;;;;;4984719;28;20031;-82
2024/02/04 05:48:03;;;;;;;6.97;2.80;;;5.90;99.90;;;;;;4981041;28;20382;-83
2024/02/04 05:50:28;;;;;;;7.43;3.20;;;5.90;99.90;;;;;;4982127;28;20046;-83
2024/02/04 05:52:54;;;;;;;4.90;3.37;;;5.90;99.90;;;;;;4982706;28;20026;-83
2024/02/04 05:55:20;;;;;;;9.70;3.77;;;5.90;99.90;;;;;;4981796;28;20041;-82
2024/02/04 05:57:45;;;;;;;6.03;3.33;;;5.80;99.90;;;;;;4963252;28;20042;-84
2024/02/04 06:00:12;;;;;;;6.53;4.07;;;5.90;99.90;;;;;;4980509;28;20045;-84
2024/02/04 06:02:37;;;;;;;5.83;3.73;;;5.80;99.90;;;;;;4980199;28;20050;-84
2024/02/04 06:05:03;;;;;;;6.33;3.60;;;5.80;99.90;;;;;;4981000;28;20018;-84
2024/02/04 06:07:28;;;;;;;5.37;3.73;;;5.70;99.90;;;;;;4982265;28;20149;-84
2024/02/04 06:09:56;;;;;;;8.77;3.60;;;5.70;99.90;;;;;;4980686;28;20560;-82
2024/02/04 06:12:22;;;;;;;7.43;4.20;;;5.70;99.90;;;;;;4980540;28;20034;-84
2024/02/04 06:14:47;;;;;;;5.33;3.63;;;5.70;99.90;;;;;;4980146;28;20084;-83
2024/02/04 06:17:13;;;;;;;8.80;3.63;;;5.80;99.90;;;;;;4980499;28;21093;-84
2024/02/04 06:19:38;;;;;;;10.07;4.20;;;5.70;99.90;;;;;;4978889;28;20023;-82
2024/02/04 06:22:04;;;;;;;6.60;3.23;;;5.70;99.90;;;;;;4979710;28;20034;-84
2024/02/04 06:24:29;;;;;;;5.90;3.87;;;5.80;99.90;;;;;;4981408;28;20125;-84
2024/02/04 06:26:55;;;;;;;7.23;3.80;;;5.80;99.90;;;;;;4979075;28;20054;-85
2024/02/04 06:29:21;;;;;;;8.40;4.03;;;5.70;99.90;;;;;;4980800;28;20023;-83
2024/02/04 06:31:46;;;;;;;9.43;4.60;;;5.80;99.90;;;;;;4980752;28;20808;-83
2024/02/04 06:34:12;;;;;;;9.87;4.93;;;5.80;99.90;;;;;;4980678;28;20050;-83
2024/02/04 06:36:41;;;;;;;6.83;4.20;;;5.80;99.90;;;;;;4981756;28;20036;-84
2024/02/04 06:39:08;;;;;;;7.77;4.47;;;5.80;99.90;;;;;;4979136;28;20048;-84
2024/02/04 06:41:34;;;;;;;9.97;5.50;;;5.80;99.90;;;;;;4959201;28;20027;-83
2024/02/04 06:44:00;;;;;;;6.27;5.10;;;5.80;99.90;;;;;;4977453;28;20446;-84
2024/02/04 06:46:26;;;;;;;9.43;5.17;;;5.80;99.90;;;;;;4977105;28;20027;-84
2024/02/04 06:48:53;;;;;;;8.70;4.73;;;5.90;99.90;;;;;;4979480;28;20102;-84
2024/02/04 06:51:18;;;;;;;8.47;4.87;;;5.90;99.90;;;;;;4979119;28;20039;-84
2024/02/04 06:53:44;;;;;;;8.07;5.10;;;5.90;99.90;;;;;;4978127;28;20609;-85
2024/02/04 06:56:09;;;;;;;11.50;5.47;;;6.00;99.90;;;;;;4977880;28;20097;-84
2024/02/04 06:58:37;;;;;;;6.00;4.87;;;6.00;99.90;;;;;;4975385;28;20726;-84
2024/02/04 07:01:03;;;;;;;8.53;5.33;;;6.00;99.90;;;;;;4976544;28;20034;-85
2024/02/04 07:03:29;;;;;;;12.40;5.57;;;6.00;99.90;;;;;;4956698;28;20037;-86
2024/02/04 07:05:54;;;;;;;7.90;5.37;;;6.00;99.90;;;;;;4978716;28;20046;-84
2024/02/04 07:08:20;;;;;;;10.87;5.20;;;6.00;99.90;;;;;;4974833;28;20037;-89
2024/02/04 07:10:45;;;;;;;10.33;5.77;;;6.00;99.90;;;;;;4976426;28;20030;-87
2024/02/04 07:13:12;;;;;;;12.80;5.60;;;6.00;99.90;;;;;;4976958;28;20049;-87
2024/02/04 07:15:38;;;;;;;10.33;5.40;;;6.10;99.90;;;;;;4977034;28;20498;-87
2024/02/04 07:18:04;;;;;;;9.97;4.90;;;6.00;99.90;;;;;;4958839;28;20034;-88
2024/02/04 07:20:30;;;;;;;7.30;5.10;;;6.10;99.90;;;;;;4977650;28;20556;-88
2024/02/04 07:22:55;;;;;;;8.13;5.30;;;6.10;99.90;;;;;;4977335;28;20106;-88
2024/02/04 07:25:22;;;;;;;9.30;5.23;;;6.20;99.90;;;;;;4975954;28;20059;-88
2024/02/04 07:27:47;;;;;;;10.77;4.80;;;6.20;99.90;;;;;;4978396;28;20125;-88
2024/02/04 07:32:38;;;;;;;9.77;4.93;;;6.20;99.90;;;;;;4982297;23;20062;-76
2024/02/04 09:23:53;;;;;;;5.00;3.00;;;8.20;99.90;;;;;;6242697;23;19930;-85
2024/02/04 09:26:46;;;;;;;8.30;2.93;;;8.20;99.90;;;;;;6241153;23;20074;-84
2024/02/04 09:29:14;;;;;;;8.27;3.90;;;8.30;99.90;;;;;;6241119;23;20019;-82
2024/02/04 09:31:41;;;;;;;6.37;2.90;;;8.40;99.90;;;;;;6229358;23;20019;-79
2024/02/04 09:34:07;;;;;;;6.27;3.20;;;8.50;99.90;;;;;;6232355;23;20012;-79
2024/02/04 09:36:32;;;;;;;5.80;2.80;;;8.50;99.90;;;;;;6239582;23;20015;-85
2024/02/04 09:38:58;;;;;;;7.70;2.83;;;8.50;99.90;;;;;;6234724;23;20008;-84
2024/02/04 09:41:38;;;;;;;6.60;3.30;;;8.50;99.90;;;;;;6238986;22;20034;-84
2024/02/04 09:44:36;;;;;;;5.60;3.00;;;8.50;99.90;;;;;;6238113;23;20019;-84
2024/02/04 09:47:12;;;;;;;10.60;3.30;;;8.40;99.90;;;;;;6212367;23;20438;-85
2024/02/04 09:53:51;;;;;;;;;;;;;;;;;;;;;
2024/02/04 09:59:07;;;;;;;7.83;3.77;;;8.30;99.90;;;;;;6109959;23;20084;-86
2024/02/04 10:01:41;;;;;;;4.60;2.87;;;8.20;99.90;;;;;;6090059;23;20013;-88
2024/02/04 10:04:15;;;;;;;9.27;3.47;;;8.30;99.90;;;;;;6113355;23;20010;-86
2024/02/04 10:06:43;;;;;;;9.10;4.57;;;8.30;99.90;;;;;;6112087;23;20020;-85
2024/02/04 10:09:12;;;;;;;7.87;3.87;;;8.30;99.90;;;;;;6151050;23;20357;-86
2024/02/04 10:11:37;;;;;;;6.53;3.50;;;8.40;99.90;;;;;;6237785;22;20016;-85
2024/02/04 10:14:03;;;;;;;5.97;3.60;;;8.40;99.90;;;;;;6238756;23;20445;-85
2024/02/04 10:16:41;;;;;;;;;;;;;;;;;;;;;
2024/02/04 10:19:09;;;;;;;6.63;3.50;;;8.30;99.90;;;;;;6236658;23;20433;-85
2024/02/04 10:21:35;;;;;;;8.90;3.80;;;8.30;99.90;;;;;;6237897;22;20020;-86
2024/02/04 10:24:01;;;;;;;5.47;3.40;;;8.30;99.90;;;;;;6237388;23;20015;-86
2024/02/04 10:26:36;;;;;;;5.80;3.30;;;8.40;99.90;;;;;;6209546;23;20015;-86
2024/02/04 10:29:02;;;;;;;8.30;4.07;;;8.50;99.90;;;;;;6237671;23;20498;-85
2024/02/04 10:31:41;;;;;;;;;;;;;;;;;;;;;
2024/02/04 10:34:07;;;;;;;7.73;3.67;;;8.70;99.90;;;;;;6237378;23;20008;-86
2024/02/04 10:36:32;;;;;;;7.73;3.80;;;8.90;99.90;;;;;;6234619;23;20721;-82
2024/02/04 10:39:27;;;;;;;5.63;3.33;;;9.00;99.90;;;;;;6238252;23;20566;-85
2024/02/04 10:41:53;;;;;;;6.70;3.53;;;8.90;99.90;;;;;;6238583;23;20128;-84
2024/02/04 10:45:06;;;;;;;;;;;;;;;;;;;;;
2024/02/04 10:48:09;;;;;;;;;;;;;;;;;;;;;
2024/02/04 10:50:36;;;;;;;5.00;2.77;;;9.10;99.90;;;;;;6237153;22;20084;-85
2024/02/04 10:53:09;;;;;;;5.13;2.53;;;9.20;99.90;;;;;;6211407;23;20494;-84
2024/02/04 10:56:01;;;;;;;4.63;2.20;;;9.10;99.90;;;;;;6239411;23;19996;-85
2024/02/04 10:58:27;;;;;;;6.37;2.57;;;9.10;99.90;;;;;;6085305;23;20006;-85
2024/02/04 11:03:51;;;;;;;7.10;2.30;;;9.10;99.90;;;;;;6211795;23;20345;-85
2024/02/04 11:06:23;;;;;;;6.70;2.60;;;9.00;99.90;;;;;;6238409;23;20016;-85
2024/02/04 11:08:52;;;;;;;4.83;2.10;;;9.00;99.90;;;;;;6237983;23;20015;-85
2024/02/04 11:11:18;;;;;;;6.53;1.80;;;8.90;99.90;;;;;;6237382;22;20003;-86
2024/02/04 11:13:52;;;;;;;4.30;1.83;;;8.90;99.90;;;;;;6236907;23;20129;-84
2024/02/04 11:16:36;;;;;;;3.83;1.80;;;8.90;99.90;;;;;;6236592;23;20008;-85
2024/02/04 11:19:19;;;;;;;5.20;2.13;;;9.00;99.90;;;;;;6235754;23;20378;-85
2024/02/04 11:22:02;;;;;;;5.53;1.80;;;9.10;99.90;;;;;;6238967;22;20307;-85
2024/02/04 11:24:44;;;;;;;11.17;2.43;;;9.20;99.90;;;;;;6209853;23;20087;-80
2024/02/04 11:27:10;;;;;;;5.97;2.10;;;9.40;99.90;;;;;;6234653;23;20139;-77
2024/02/04 11:29:39;;;;;;;4.50;1.77;;;9.60;99.90;;;;;;6237175;22;20008;-85
2024/02/04 11:32:15;;;;;;;3.67;1.70;;;9.80;99.90;;;;;;6237951;23;20425;-85
2024/02/04 11:34:42;;;;;;;2.90;1.40;;;9.80;99.90;;;;;;6237993;23;20580;-84
2024/02/04 11:37:20;;;;;;;3.60;1.40;;;9.80;99.90;;;;;;6238073;23;20000;-84
2024/02/04 11:40:05;;;;;;;3.47;1.73;;;9.80;99.90;;;;;;6239988;22;20004;-86
2024/02/04 11:42:43;;;;;;;3.50;1.67;;;9.80;99.90;;;;;;6227227;23;20036;-85
2024/02/04 11:45:11;;;;;;;6.93;1.73;;;9.80;99.90;;;;;;6236684;23;20023;-83
2024/02/04 11:47:39;;;;;;;2.83;1.47;;;9.80;99.90;;;;;;6210281;23;20026;-85
2024/02/04 11:50:15;;;;;;;5.03;1.60;;;9.90;99.90;;;;;;6210713;23;20023;-85
2024/02/04 11:52:46;;;;;;;2.97;1.60;;;9.90;99.90;;;;;;6210272;23;20036;-86
2024/02/04 11:55:29;;;;;;;6.97;1.67;;;10.00;99.90;;;;;;6235573;23;20006;-84
2024/02/04 11:57:59;;;;;;;3.63;1.40;;;10.10;99.90;;;;;;6237328;23;20477;-86
2024/02/04 12:00:25;;;;;;;3.70;1.33;;;10.10;99.90;;;;;;6237555;22;20027;-85
2024/02/04 12:03:05;;;;;;;4.37;1.57;;;10.10;99.90;;;;;;6238028;23;20011;-85
2024/02/04 12:05:49;;;;;;;5.17;1.47;;;10.20;99.90;;;;;;6210567;23;20028;-86
2024/02/04 12:08:15;;;;;;;2.87;1.50;;;10.20;99.90;;;;;;6237335;23;20743;-86
2024/02/04 12:10:42;;;;;;;5.40;1.30;;;10.20;99.90;;;;;;6237492;22;20039;-85
2024/02/04 12:13:07;;;;;;;8.90;1.70;;;10.30;99.90;;;;;;6237902;23;20000;-85
2024/02/04 12:15:36;;;;;;;6.40;1.70;;;10.30;99.90;;;;;;6237915;23;20011;-84
2024/02/04 12:18:08;;;;;;;3.33;1.30;;;10.50;99.90;;;;;;6237212;23;20011;-85
2024/02/04 12:20:36;;;;;;;4.23;1.40;;;10.50;99.90;;;;;;6238224;22;20330;-85
2024/02/04 12:23:05;;;;;;;4.17;1.40;;;10.40;99.90;;;;;;6238474;23;20012;-85
2024/02/04 12:25:35;;;;;;;3.63;1.53;;;10.50;99.90;;;;;;6211073;23;20011;-85
2024/02/04 12:28:02;;;;;;;4.67;1.70;;;10.40;99.90;;;;;;6237879;23;20429;-85
2024/02/04 12:33:20;;;;;;;5.23;1.63;;;10.40;99.90;;;;;;6218483;23;20441;-82
2024/02/04 12:35:50;;;;;;;4.43;1.83;;;10.40;99.90;;;;;;6239696;23;20016;-86
2024/02/04 12:38:18;;;;;;;6.80;1.60;;;10.40;99.90;;;;;;6238939;23;20008;-86
2024/02/04 12:40:44;;;;;;;6.23;1.60;;;10.30;99.90;;;;;;6212056;23;20426;-86
2024/02/04 12:43:13;;;;;;;3.20;1.77;;;10.30;99.90;;;;;;6239254;23;20014;-85
2024/02/04 12:45:39;;;;;;;9.77;2.10;;;10.40;99.90;;;;;;6238894;23;20008;-85
2024/02/04 12:48:06;;;;;;;7.63;2.00;;;10.30;99.90;;;;;;6211904;23;20016;-86
2024/02/04 12:50:33;;;;;;;7.33;2.30;;;10.30;99.90;;;;;;6238861;22;20019;-85
2024/02/04 12:53:11;;;;;;;3.87;1.70;;;10.30;99.90;;;;;;6211406;23;20095;-85
2024/02/04 12:55:37;;;;;;;8.47;1.90;;;10.30;99.90;;;;;;6239037;23;20035;-85
2024/02/04 12:58:07;;;;;;;5.00;2.23;;;10.40;99.90;;;;;;6211805;23;20012;-86
2024/02/04 13:00:36;;;;;;;4.37;2.10;;;10.40;99.90;;;;;;6238359;22;20019;-86
2024/02/04 13:03:10;;;;;;;4.37;2.00;;;10.50;99.90;;;;;;6238603;23;20043;-87
2024/02/04 13:05:37;;;;;;;4.43;1.77;;;10.50;99.90;;;;;;6239323;23;20467;-86
2024/02/04 13:08:05;;;;;;;4.97;1.90;;;10.60;99.90;;;;;;6240353;23;20023;-85
2024/02/04 13:10:35;;;;;;;4.30;1.87;;;10.70;99.90;;;;;;6239112;22;20004;-84
2024/02/04 13:13:06;;;;;;;4.57;1.73;;;10.80;99.90;;;;;;6239761;23;20038;-86
2024/02/04 13:15:34;;;;;;;5.83;1.80;;;10.80;99.90;;;;;;6211759;23;20018;-84
2024/02/04 13:18:00;;;;;;;5.63;1.90;;;10.80;99.90;;;;;;6211774;23;20020;-87
2024/02/04 13:20:26;;;;;;;6.33;2.00;;;10.80;99.90;;;;;;6238375;22;20020;-85
2024/02/04 13:23:08;;;;;;;5.93;2.20;;;10.80;99.90;;;;;;6238678;23;20012;-86
2024/02/04 13:25:34;;;;;;;7.43;2.00;;;10.70;99.90;;;;;;6238812;23;20004;-87
2024/02/04 13:28:00;;;;;;;7.80;2.57;;;10.70;99.90;;;;;;6237884;23;20012;-87
2024/02/04 13:30:28;;;;;;;5.37;2.30;;;10.70;99.90;;;;;;6238234;22;20349;-87
2024/02/04 13:32:54;;;;;;;5.60;2.63;;;10.70;99.90;;;;;;6238727;23;20019;-86
2024/02/04 13:35:53;;;;;;;;;;;;;;;;;;;;;
2024/02/04 13:39:20;;;;;;;6.50;2.30;;;10.70;99.90;;;;;;6238636;23;20111;-88
2024/02/04 22:02:07;;;;;;;;;;;8.90;99.90;;;;;;6237043;22;20103;-87
2024/02/04 22:04:33;;;;;;;6.60;1.30;;;8.90;99.90;;;;;;6238206;23;19911;-87
2024/02/04 22:06:58;;;;;;;4.37;1.40;;;8.90;99.90;;;;;;6238221;23;20223;-87
2024/02/04 22:09:24;;;;;;;1.73;1.03;;;8.90;99.90;;;;;;6238832;22;20011;-87
2024/02/04 22:11:49;;;;;;;5.03;1.30;;;8.90;99.90;;;;;;6239229;22;20008;-84
2024/02/04 22:14:15;;;;;;;3.57;1.40;;;8.90;99.90;;;;;;6240424;23;20678;-85
2024/02/04 22:16:42;;;;;;;2.77;1.37;;;8.90;99.90;;;;;;6240817;23;20571;-85
2024/02/04 22:19:08;;;;;;;1.43;0.90;;;8.80;99.90;;;;;;6238343;23;20162;-84
2024/02/04 22:21:34;;;;;;;3.53;1.30;;;8.90;99.90;;;;;;6238298;22;20011;-85
2024/02/04 22:24:02;;;;;;;3.60;1.40;;;8.80;99.90;;;;;;6237912;23;20449;-85
2024/02/04 22:26:27;;;;;;;5.57;1.30;;;8.80;99.90;;;;;;6238645;23;20004;-85
2024/02/04 22:28:53;;;;;;;2.83;1.10;;;8.80;99.90;;;;;;6237081;23;20162;-85
2024/02/04 22:31:18;;;;;;;3.63;1.30;;;8.80;99.90;;;;;;6238508;22;20452;-85
2024/02/04 22:33:44;;;;;;;4.40;1.37;;;8.80;99.90;;;;;;6237290;23;20004;-85
2024/02/04 22:36:09;;;;;;;5.63;1.27;;;8.80;99.90;;;;;;6237654;23;20036;-85
2024/02/04 22:38:35;;;;;;;4.23;1.10;;;8.70;99.90;;;;;;6237458;23;20436;-85
2024/02/04 22:41:00;;;;;;;3.37;1.10;;;8.80;99.90;;;;;;6237002;22;20034;-86
2024/02/04 22:43:26;;;;;;;3.23;1.20;;;8.80;99.90;;;;;;6237694;23;20710;-85
2024/02/04 22:45:52;;;;;;;5.07;1.10;;;8.70;99.90;;;;;;6237742;23;20011;-87
2024/02/04 22:48:17;;;;;;;4.47;1.13;;;8.70;99.90;;;;;;6236871;23;20020;-86
2024/02/04 22:50:43;;;;;;;4.37;1.20;;;8.70;99.90;;;;;;6237955;22;20062;-87
2024/02/04 22:53:08;;;;;;;2.83;1.20;;;8.70;99.90;;;;;;6237822;23;20000;-85
2024/02/04 22:55:35;;;;;;;2.47;1.20;;;8.60;99.90;;;;;;6237646;22;20358;-86
2024/02/04 22:58:00;;;;;;;3.30;1.33;;;8.60;99.90;;;;;;6210172;23;20008;-86
2024/02/04 23:00:27;;;;;;;3.57;1.63;;;8.60;99.90;;;;;;6237112;22;20104;-86
2024/02/04 23:02:57;;;;;;;1.77;1.10;;;8.50;99.90;;;;;;6220933;23;20082;-86
2024/02/04 23:05:23;;;;;;;4.77;1.10;;;8.50;99.90;;;;;;6238302;22;20104;-86
2024/02/04 23:07:48;;;;;;;4.87;1.30;;;8.60;99.90;;;;;;6237762;22;20349;-86
2024/02/04 23:10:14;;;;;;;2.90;1.20;;;8.60;99.90;;;;;;6237677;22;20038;-85
2024/02/04 23:12:40;;;;;;;3.67;1.47;;;8.70;99.90;;;;;;6238634;23;20012;-85
2024/02/04 23:15:06;;;;;;;4.27;1.20;;;8.70;99.90;;;;;;6238767;22;20015;-85
2024/02/04 23:17:32;;;;;;;5.10;1.13;;;8.70;99.90;;;;;;6236776;22;20078;-85
2024/02/04 23:19:58;;;;;;;2.83;1.30;;;8.80;99.90;;;;;;6237565;22;20552;-85
2024/02/04 23:22:23;;;;;;;2.20;1.57;;;8.80;99.90;;;;;;6237446;23;20046;-85
2024/02/04 23:24:48;;;;;;;4.23;1.37;;;8.80;99.90;;;;;;6237213;23;20036;-85
2024/02/04 23:27:14;;;;;;;4.13;1.30;;;8.80;99.90;;;;;;6236934;23;20012;-85
2024/02/04 23:29:40;;;;;;;3.53;1.13;;;8.80;99.90;;;;;;6238175;22;20034;-87
2024/02/04 23:32:06;;;;;;;4.03;1.43;;;8.90;99.90;;;;;;6238144;23;20045;-85